KFHR

Friday Harbor Airport

Friday Harbor, Washington, USA
METAR KFHR 181053Z AUTO 00000KT 9SM CLR 07/05 A3014 RMK AO2 SLP206 T00720050
Observed Flight Rules
Oct-18 @ 10:53 UTC (37 minutes ago) Visual Flight Rules
Visibility Clouds
9 miles
  • Clear skies
Temperatures Readings
Current 7°C / 45°F
Dewpoint 5°C / 41°F
Humidity 87%
Altimeter 30.14" Hg
Pressure 1020.6 hPa
Elevation 32
METAR KFHR 181053Z AUTO 00000KT 9SM CLR 07/05 A3014 RMK AO2 SLP206 T00720050
Observed Flight Rules
Oct-18 @ 10:53 UTC
(37 minutes ago)
VFR
Clouds
  • Clear skies
Temperature Dewpoint
7°C / 45°F 5°C / 41°F
Humidity Altimeter Pressure
87% 30.14" Hg 1020.6 hPa